Time;durP1;ratioP1;P1;durP2;ratioP2;P2;SDS_P1;SDS_P2;PMS_P1;PMS_P2;Temp;Humidity;BMP_temperature;BMP_pressure;BME280_temperature;BME280_humidity;BME280_pressure;Samples;Min_cycle;Max_cycle;Signal;HPM_P1;HPM_P2
2024/03/03 00:00:24;;;;;;;0.90;0.90;;;;;;;4.21;98.36;96891.88;6217291;23;20111;-92
2024/03/03 00:02:53;;;;;;;0.90;0.90;;;;;;;3.94;97.96;96901.78;6192641;23;20012;-94
2024/03/03 00:05:19;;;;;;;0.80;0.80;;;;;;;3.73;97.70;96895.09;6216379;23;20043;-94
2024/03/03 00:07:44;;;;;;;0.85;0.85;;;;;;;3.63;97.75;96894.81;6216426;23;20028;-94
2024/03/03 00:10:11;;;;;;;0.80;0.80;;;;;;;3.52;98.01;96890.16;6218333;23;20337;-93
2024/03/03 00:12:38;;;;;;;0.80;0.80;;;;;;;3.46;98.13;96902.28;6215528;23;19997;-92
2024/03/03 00:15:03;;;;;;;0.90;0.90;;;;;;;3.53;99.87;96894.56;6190436;23;20013;-94
2024/03/03 00:17:29;;;;;;;0.90;0.90;;;;;;;3.50;99.63;96898.88;6215351;23;20348;-93
2024/03/03 00:19:55;;;;;;;0.80;0.80;;;;;;;3.67;99.83;96894.94;6216408;23;20007;-93
2024/03/03 00:22:21;;;;;;;1.00;1.00;;;;;;;3.62;99.42;96891.28;6216157;23;20021;-94
2024/03/03 00:24:47;;;;;;;0.90;0.90;;;;;;;3.90;99.31;96892.88;6192077;23;20008;-91
2024/03/03 00:27:13;;;;;;;0.90;0.90;;;;;;;4.07;99.84;96888.94;6223669;23;20020;-93
2024/03/03 00:29:39;;;;;;;1.02;1.02;;;;;;;3.96;99.29;96892.16;6219848;23;20004;-93
2024/03/03 00:32:05;;;;;;;0.88;0.88;;;;;;;4.00;99.59;96881.72;6219413;23;20023;-93
2024/03/03 00:34:30;;;;;;;0.90;0.90;;;;;;;3.91;99.37;96888.50;6221578;23;20016;-93
2024/03/03 00:36:56;;;;;;;0.90;0.90;;;;;;;3.83;99.13;96886.59;6217063;23;20040;-92
2024/03/03 00:39:23;;;;;;;1.00;1.00;;;;;;;3.54;99.56;96882.28;6218257;23;20012;-91
2024/03/03 00:41:48;;;;;;;0.90;0.90;;;;;;;3.62;99.81;96879.84;6194532;23;20016;-93
2024/03/03 00:44:14;;;;;;;0.90;0.90;;;;;;;3.84;99.54;96879.56;6216107;23;20009;-93
2024/03/03 00:46:40;;;;;;;0.88;0.88;;;;;;;3.93;99.58;96885.06;6216872;23;20020;-92
2024/03/03 00:49:05;;;;;;;0.90;0.90;;;;;;;3.82;99.74;96879.50;6218388;23;20011;-91
2024/03/03 00:51:30;;;;;;;0.80;0.80;;;;;;;3.70;98.56;96875.69;6217893;23;20012;-93
2024/03/03 00:53:56;;;;;;;0.90;0.90;;;;;;;3.53;99.33;96884.03;6226385;23;20016;-90
2024/03/03 00:56:21;;;;;;;0.90;0.90;;;;;;;3.28;98.95;96878.94;6201997;23;20012;-95
2024/03/03 00:58:47;;;;;;;0.90;0.90;;;;;;;3.19;98.95;96869.03;6192451;23;20027;-91
2024/03/03 01:01:14;;;;;;;1.00;1.00;;;;;;;3.37;100.00;96858.13;6214054;23;20044;-91
2024/03/03 01:03:40;;;;;;;0.90;0.90;;;;;;;3.59;100.00;96864.81;6214827;23;20071;-90
2024/03/03 01:06:08;;;;;;;0.90;0.90;;;;;;;3.31;99.45;96858.84;6215684;23;20012;-94
2024/03/03 01:08:33;;;;;;;;;;;;;;;3.16;100.00;96857.50;6218271;23;20017;-89
2024/03/03 01:10:59;;;;;;;1.00;1.00;;;;;;;3.12;100.00;96864.47;6230109;23;19919;-90
2024/03/03 01:13:24;;;;;;;0.90;0.90;;;;;;;3.21;100.00;96862.09;6190378;23;20445;-93
2024/03/03 01:15:51;;;;;;;0.90;0.90;;;;;;;3.14;100.00;96857.47;6190354;23;20019;-94
2024/03/03 01:18:18;;;;;;;0.88;0.88;;;;;;;2.94;100.00;96851.66;6216660;23;20087;-93
2024/03/03 01:20:44;;;;;;;0.90;0.90;;;;;;;2.87;100.00;96852.31;6226043;23;20011;-91
2024/03/03 01:23:09;;;;;;;0.90;0.90;;;;;;;2.85;100.00;96850.50;6194759;23;20009;-92
2024/03/03 01:25:36;;;;;;;0.90;0.90;;;;;;;2.87;100.00;96839.16;6217509;23;20024;-93
2024/03/03 01:28:02;;;;;;;1.00;1.00;;;;;;;2.67;100.00;96833.31;6215591;23;20015;-93
2024/03/03 01:30:32;;;;;;;1.00;1.00;;;;;;;2.75;100.00;96834.44;6215246;23;20072;-91
2024/03/03 01:32:57;;;;;;;0.90;0.90;;;;;;;2.63;100.00;96839.34;6216462;23;20012;-92
2024/03/03 01:35:23;;;;;;;1.00;1.00;;;;;;;3.18;100.00;96830.38;6211986;23;20012;-94
2024/03/03 01:37:48;;;;;;;0.90;0.90;;;;;;;3.39;100.00;96824.75;6212005;23;20015;-94
2024/03/03 01:40:14;;;;;;;1.00;1.00;;;;;;;3.86;100.00;96818.06;6213767;23;20032;-93
2024/03/03 01:42:39;;;;;;;0.80;0.80;;;;;;;3.49;100.00;96813.59;6214937;23;20012;-89
2024/03/03 01:45:05;;;;;;;1.00;1.00;;;;;;;3.16;100.00;96821.50;6216480;23;20012;-93
2024/03/03 01:47:31;;;;;;;1.00;1.00;;;;;;;3.12;100.00;96818.78;6220983;23;20012;-90
2024/03/03 01:49:58;;;;;;;0.90;0.90;;;;;;;3.30;100.00;96812.22;6231212;23;20054;-90
2024/03/03 01:52:25;;;;;;;1.00;1.00;;;;;;;3.63;100.00;96808.69;6228758;23;20024;-91
2024/03/03 01:54:51;;;;;;;0.90;0.90;;;;;;;3.42;100.00;96809.03;6225954;23;20005;-94
2024/03/03 01:57:20;;;;;;;1.00;1.00;;;;;;;3.21;100.00;96806.75;6226498;23;20020;-91
2024/03/03 01:59:50;;;;;;;1.00;1.00;;;;;;;2.93;100.00;96812.13;6231201;23;20023;-94
2024/03/03 02:02:16;;;;;;;1.00;1.00;;;;;;;2.89;100.00;96811.13;6209203;23;20013;-91
2024/03/03 02:04:42;;;;;;;1.00;1.00;;;;;;;2.92;100.00;96807.69;6204136;23;20024;-91
2024/03/03 02:07:08;;;;;;;1.00;1.00;;;;;;;2.92;100.00;96807.69;6230385;23;20072;-91
2024/03/03 02:09:35;;;;;;;1.10;1.10;;;;;;;2.76;100.00;96820.41;6232954;23;20004;-92
2024/03/03 02:12:03;;;;;;;;;;;;;;;2.89;100.00;96816.41;6233872;23;20028;-91
2024/03/03 02:14:31;;;;;;;1.08;1.08;;;;;;;2.47;100.00;96823.97;6232512;23;19916;-93
2024/03/03 02:16:58;;;;;;;0.90;0.90;;;;;;;2.39;100.00;96807.94;6235096;23;20009;-91
2024/03/03 02:19:25;;;;;;;1.00;1.00;;;;;;;2.48;100.00;96807.31;6231875;23;20024;-92
2024/03/03 02:21:51;;;;;;;1.00;1.00;;;;;;;2.33;100.00;96807.75;6228658;23;20093;-91
2024/03/03 02:24:16;;;;;;;0.90;0.90;;;;;;;2.29;100.00;96801.50;6231965;23;20008;-91
2024/03/03 02:26:42;;;;;;;1.00;1.00;;;;;;;2.24;100.00;96796.94;6207143;23;19992;-91
2024/03/03 02:29:09;;;;;;;0.98;0.98;;;;;;;2.35;100.00;96800.81;6231529;23;20032;-91
2024/03/03 02:31:38;;;;;;;0.90;0.90;;;;;;;2.04;100.00;96804.25;6231478;23;20016;-92
2024/03/03 02:34:03;;;;;;;0.90;0.90;;;;;;;2.37;100.00;96808.75;6229773;23;20040;-91
2024/03/03 02:36:28;;;;;;;1.00;1.00;;;;;;;2.15;100.00;96813.34;6230993;23;20016;-92
2024/03/03 02:38:57;;;;;;;0.90;0.90;;;;;;;2.18;100.00;96813.44;6234309;23;20013;-92
2024/03/03 02:41:22;;;;;;;0.90;0.90;;;;;;;2.13;100.00;96816.78;6232831;23;20039;-91
2024/03/03 02:43:48;;;;;;;0.90;0.90;;;;;;;2.25;100.00;96812.81;6232574;23;20064;-92
2024/03/03 02:46:13;;;;;;;1.00;1.00;;;;;;;2.35;100.00;96810.41;6233304;23;20004;-91
2024/03/03 02:48:39;;;;;;;0.90;0.90;;;;;;;2.38;100.00;96815.78;6206218;23;20043;-91
2024/03/03 02:51:04;;;;;;;0.90;0.90;;;;;;;2.65;100.00;96808.69;6204180;23;20019;-91
2024/03/03 02:53:30;;;;;;;1.00;1.00;;;;;;;2.95;100.00;96806.03;6227618;23;20012;-91
2024/03/03 02:55:55;;;;;;;1.00;1.00;;;;;;;3.03;100.00;96790.44;6230318;23;20108;-92
2024/03/03 02:58:22;;;;;;;1.00;1.00;;;;;;;2.84;100.00;96802.22;6236799;23;20031;-91
2024/03/03 03:00:49;;;;;;;1.00;1.00;;;;;;;2.74;100.00;96805.44;6235610;23;20005;-91
2024/03/03 03:03:14;;;;;;;1.00;1.00;;;;;;;2.45;100.00;96797.59;6236997;23;20009;-92
2024/03/03 03:05:40;;;;;;;1.00;1.00;;;;;;;2.60;100.00;96786.63;6189004;23;20273;-91
2024/03/03 03:08:06;;;;;;;1.00;1.00;;;;;;;2.57;100.00;96789.16;6237630;23;20031;-92
2024/03/03 03:10:31;;;;;;;1.00;1.00;;;;;;;2.44;100.00;96784.38;6205807;23;20016;-92
2024/03/03 03:12:56;;;;;;;0.95;0.95;;;;;;;2.54;100.00;96787.34;6207491;23;19996;-92
2024/03/03 03:15:22;;;;;;;1.00;1.00;;;;;;;2.71;100.00;96787.81;6234509;23;20011;-93
2024/03/03 03:17:48;;;;;;;1.00;1.00;;;;;;;2.55;100.00;96789.13;6183711;23;20041;-92
2024/03/03 03:20:13;;;;;;;1.00;1.00;;;;;;;2.36;100.00;96793.81;6210813;23;20047;-95
2024/03/03 03:22:39;;;;;;;0.98;0.98;;;;;;;2.36;100.00;96793.81;6237224;23;20024;-91
2024/03/03 03:25:09;;;;;;;0.90;0.90;;;;;;;2.25;100.00;96791.75;6240698;23;20001;-92
2024/03/03 03:27:35;;;;;;;0.95;0.95;;;;;;;2.20;100.00;96797.69;6240262;23;19992;-91
2024/03/03 03:30:01;;;;;;;1.00;1.00;;;;;;;2.12;100.00;96804.50;6241417;23;20004;-92
2024/03/03 03:32:27;;;;;;;1.00;1.00;;;;;;;2.13;100.00;96815.03;6241977;23;20242;-92
2024/03/03 03:34:53;;;;;;;1.00;1.00;;;;;;;2.34;100.00;96816.53;6242368;23;20028;-92
2024/03/03 03:37:19;;;;;;;1.00;1.00;;;;;;;2.16;100.00;96814.25;6241985;23;20016;-94
2024/03/03 03:39:46;;;;;;;1.00;1.00;;;;;;;1.91;100.00;96817.84;6217585;23;20001;-93
2024/03/03 03:42:11;;;;;;;1.00;1.00;;;;;;;1.92;100.00;96822.28;6241540;23;20007;-94
2024/03/03 03:44:37;;;;;;;0.90;0.90;;;;;;;1.86;100.00;96822.94;6217298;23;20017;-93
2024/03/03 03:47:02;;;;;;;0.90;0.90;;;;;;;1.83;100.00;96828.13;6234733;23;20012;-93
2024/03/03 03:49:29;;;;;;;1.00;1.00;;;;;;;1.76;100.00;96823.50;6230408;23;20040;-93
2024/03/03 03:51:55;;;;;;;1.00;1.00;;;;;;;1.67;100.00;96829.34;6229567;23;20019;-92
2024/03/03 03:54:21;;;;;;;0.90;0.90;;;;;;;1.63;100.00;96818.69;6228128;23;20063;-93
2024/03/03 03:56:46;;;;;;;0.90;0.90;;;;;;;1.60;100.00;96819.50;6228576;23;20016;-91
2024/03/03 03:59:13;;;;;;;1.08;1.08;;;;;;;1.49;100.00;96813.91;6202758;23;20544;-94
2024/03/03 04:01:40;;;;;;;0.97;0.97;;;;;;;1.57;100.00;96815.88;6228815;23;20015;-93
2024/03/03 04:04:05;;;;;;;0.90;0.90;;;;;;;1.74;100.00;96810.31;6227363;23;20226;-92
2024/03/03 04:06:31;;;;;;;0.90;0.90;;;;;;;1.70;100.00;96818.94;6229334;23;20016;-94
2024/03/03 04:08:56;;;;;;;1.00;1.00;;;;;;;1.52;100.00;96820.97;6207901;23;20016;-94
2024/03/03 04:11:22;;;;;;;1.00;1.00;;;;;;;1.33;100.00;96819.47;6209050;23;20028;-92
2024/03/03 04:13:48;;;;;;;1.10;1.10;;;;;;;1.30;100.00;96826.38;6240177;23;19996;-92
2024/03/03 04:16:14;;;;;;;1.00;1.00;;;;;;;1.16;100.00;96829.41;6237340;23;20008;-93
2024/03/03 04:18:40;;;;;;;0.90;0.90;;;;;;;1.15;100.00;96825.00;6232384;23;20103;-93
2024/03/03 04:21:05;;;;;;;0.90;0.90;;;;;;;1.06;100.00;96827.31;6207282;23;20012;-93
2024/03/03 04:23:32;;;;;;;1.10;1.10;;;;;;;1.25;100.00;96813.97;6230480;23;20102;-94
2024/03/03 04:25:58;;;;;;;1.00;1.00;;;;;;;0.99;100.00;96827.91;6231000;23;20012;-93
2024/03/03 04:28:23;;;;;;;1.00;1.00;;;;;;;0.73;100.00;96820.00;6233970;23;19999;-93
2024/03/03 04:30:50;;;;;;;1.00;1.00;;;;;;;0.86;100.00;96823.06;6232801;23;20009;-95
2024/03/03 04:33:16;;;;;;;1.00;1.00;;;;;;;0.75;100.00;96820.94;6233191;23;20023;-93
2024/03/03 04:35:42;;;;;;;1.00;1.00;;;;;;;0.75;100.00;96812.19;6232761;23;20044;-92
2024/03/03 04:38:09;;;;;;;1.02;1.02;;;;;;;0.62;100.00;96812.56;6173779;23;20008;-94
2024/03/03 04:40:34;;;;;;;1.00;1.00;;;;;;;0.44;100.00;96812.81;6228811;23;20008;-93
2024/03/03 04:43:01;;;;;;;1.02;1.02;;;;;;;0.40;100.00;96816.16;6228387;23;20092;-93
2024/03/03 04:45:26;;;;;;;1.02;1.02;;;;;;;0.33;100.00;96808.88;6220890;23;20035;-94
2024/03/03 04:47:52;;;;;;;1.00;1.00;;;;;;;0.49;100.00;96811.25;6221558;23;20012;-93
2024/03/03 04:50:18;;;;;;;1.00;1.00;;;;;;;0.66;100.00;96802.25;6201793;23;20112;-95
2024/03/03 04:52:45;;;;;;;1.10;1.10;;;;;;;0.50;100.00;96813.03;6228882;23;20019;-93
2024/03/03 04:55:11;;;;;;;1.00;1.00;;;;;;;0.41;100.00;96817.94;6208046;23;20000;-90
2024/03/03 04:57:39;;;;;;;1.00;1.00;;;;;;;0.36;100.00;96819.50;6211299;23;20032;-92
2024/03/03 05:00:10;;;;;;;1.10;1.10;;;;;;;0.41;100.00;96818.81;6238411;23;19997;-92
2024/03/03 05:02:37;;;;;;;1.00;1.00;;;;;;;0.39;100.00;96811.75;6213923;23;19996;-91
2024/03/03 05:05:04;;;;;;;0.90;0.90;;;;;;;0.29;100.00;96809.59;6237155;23;20039;-92
2024/03/03 05:07:33;;;;;;;1.00;1.00;;;;;;;0.17;100.00;96803.06;6264630;22;20001;-93
2024/03/03 05:09:59;;;;;;;1.00;1.00;;;;;;;0.56;100.00;96791.38;6215125;23;20008;-92
2024/03/03 05:12:25;;;;;;;0.90;0.90;;;;;;;0.38;100.00;96789.84;6210880;23;20059;-92
2024/03/03 05:14:51;;;;;;;1.00;1.00;;;;;;;0.25;100.00;96790.25;6237733;23;20020;-93
2024/03/03 05:17:19;;;;;;;1.10;1.10;;;;;;;0.20;100.00;96791.81;6236984;23;20051;-92
2024/03/03 05:19:45;;;;;;;1.00;1.00;;;;;;;0.48;100.00;96801.59;6233495;23;20019;-93
2024/03/03 05:22:11;;;;;;;1.00;1.00;;;;;;;0.51;100.00;96806.94;6232679;23;20007;-92
2024/03/03 05:24:37;;;;;;;1.10;1.10;;;;;;;0.39;100.00;96802.16;6168073;23;20024;-94
2024/03/03 05:27:04;;;;;;;1.05;1.05;;;;;;;0.44;100.00;96808.44;6215765;23;20344;-95
2024/03/03 05:29:29;;;;;;;1.00;1.00;;;;;;;0.32;100.00;96812.34;6216375;23;19997;-91
2024/03/03 05:31:56;;;;;;;1.10;1.10;;;;;;;0.14;100.00;96823.00;6216601;23;20031;-93
2024/03/03 05:34:23;;;;;;;1.10;1.10;;;;;;;0.09;100.00;96811.47;6166051;23;20154;-93
2024/03/03 05:36:49;;;;;;;1.10;1.10;;;;;;;0.08;100.00;96812.31;6216984;23;20062;-91
2024/03/03 05:39:17;;;;;;;1.00;1.00;;;;;;;-0.06;100.00;96814.38;6216498;23;20012;-93
2024/03/03 05:41:48;;;;;;;1.05;1.05;;;;;;;0.08;100.00;96805.31;6190571;23;20019;-95
2024/03/03 05:44:17;;;;;;;1.08;1.08;;;;;;;0.02;100.00;96807.72;6216060;23;20039;-94
2024/03/03 05:46:42;;;;;;;1.00;1.00;;;;;;;-0.16;100.00;96805.28;6215580;23;20070;-92
2024/03/03 05:49:08;;;;;;;1.00;1.00;;;;;;;-0.24;100.00;96813.66;6216837;23;20013;-92
2024/03/03 05:51:33;;;;;;;1.02;1.02;;;;;;;-0.35;100.00;96814.13;6217671;23;20451;-93
2024/03/03 05:54:01;;;;;;;1.10;1.10;;;;;;;-0.31;100.00;96812.53;6215872;23;20004;-94
2024/03/03 05:56:27;;;;;;;1.00;1.00;;;;;;;-0.31;100.00;96813.41;6216230;23;20016;-94
2024/03/03 05:58:53;;;;;;;1.10;1.10;;;;;;;-0.46;100.00;96811.91;6190935;23;20019;-93
2024/03/03 06:01:18;;;;;;;1.00;1.00;;;;;;;-0.51;100.00;96819.59;6190820;23;20040;-95
2024/03/03 06:03:44;;;;;;;1.10;1.10;;;;;;;-0.47;100.00;96825.84;6215940;23;20064;-95
2024/03/03 06:06:10;;;;;;;1.10;1.10;;;;;;;-0.28;100.00;96828.38;6192592;23;20103;-94
2024/03/03 06:08:45;;;;;;;1.10;1.10;;;;;;;-0.24;100.00;96834.63;6215624;23;20008;-94
2024/03/03 06:11:10;;;;;;;1.05;1.05;;;;;;;-0.21;100.00;96840.88;6216159;23;20494;-95
2024/03/03 06:13:36;;;;;;;0.95;0.95;;;;;;;-0.18;100.00;96846.25;6214992;23;20087;-94
2024/03/03 06:16:03;;;;;;;1.10;1.10;;;;;;;0.01;100.00;96849.63;6216946;23;20012;-93
2024/03/03 06:18:30;;;;;;;1.10;1.10;;;;;;;0.09;100.00;96850.78;6214994;23;20008;-94
2024/03/03 06:20:57;;;;;;;1.10;1.10;;;;;;;-0.01;100.00;96845.19;6193093;23;20027;-94
2024/03/03 06:23:22;;;;;;;1.10;1.10;;;;;;;0.03;100.00;96847.94;6214941;23;20012;-94
2024/03/03 06:25:50;;;;;;;1.00;1.00;;;;;;;0.11;100.00;96844.78;6215174;23;20394;-95
2024/03/03 06:28:16;;;;;;;1.10;1.10;;;;;;;-0.04;100.00;96847.69;6214626;23;20495;-94
2024/03/03 06:30:42;;;;;;;1.13;1.13;;;;;;;0.08;100.00;96842.03;6213910;23;20004;-95
2024/03/03 06:33:10;;;;;;;1.10;1.10;;;;;;;-0.04;100.00;96839.84;6214408;23;20021;-94
2024/03/03 06:35:36;;;;;;;1.10;1.10;;;;;;;-0.04;100.00;96844.19;6189488;23;20009;-92
2024/03/03 06:38:02;;;;;;;1.10;1.10;;;;;;;-0.03;100.00;96846.84;6164666;23;20021;-94
2024/03/03 06:40:27;;;;;;;1.10;1.10;;;;;;;0.29;100.00;96841.97;6214011;23;20052;-93
2024/03/03 06:42:53;;;;;;;1.00;1.00;;;;;;;0.69;100.00;96839.09;6189680;23;20091;-95
2024/03/03 06:45:18;;;;;;;1.10;1.10;;;;;;;1.07;100.00;96834.34;6188741;23;20027;-94
2024/03/03 06:47:44;;;;;;;1.00;1.00;;;;;;;1.45;99.45;96829.50;6188840;23;20487;-94
2024/03/03 06:50:11;;;;;;;1.00;1.00;;;;;;;1.89;97.61;96827.44;6190637;23;20016;-94
2024/03/03 06:52:43;;;;;;;1.10;1.10;;;;;;;2.18;94.90;96826.59;6219527;23;20095;-93
2024/03/03 06:55:11;;;;;;;1.00;1.00;;;;;;;2.57;93.73;96820.75;6218716;23;20073;-93
2024/03/03 06:57:55;;;;;;;;;;;;;;;;;;;;;
2024/03/03 07:00:25;;;;;;;1.00;1.00;;;;;;;2.97;90.46;96821.88;6202780;23;20380;-94
2024/03/03 07:06:05;;;;;;;0.90;0.90;;;;;;;4.10;91.36;96816.84;6221707;23;20009;-94
2024/03/03 07:08:33;;;;;;;0.90;0.90;;;;;;;4.42;89.44;96819.34;6216859;23;20083;-95
2024/03/03 07:11:03;;;;;;;0.80;0.80;;;;;;;4.64;86.28;96811.91;6165847;23;20020;-96
2024/03/03 07:13:35;;;;;;;0.80;0.80;;;;;;;5.01;87.84;96811.78;6214831;23;20091;-95
2024/03/03 07:16:03;;;;;;;0.70;0.70;;;;;;;4.71;83.79;96807.66;6215580;23;20031;-94
2024/03/03 07:18:33;;;;;;;0.90;0.90;;;;;;;4.75;86.00;96809.50;6217683;23;20015;-95
2024/03/03 07:21:20;;;;;;;0.80;0.80;;;;;;;5.73;86.47;96803.41;6216425;23;20020;-95
2024/03/03 07:23:49;;;;;;;0.80;0.80;;;;;;;6.10;84.41;96806.69;6214531;23;20012;-95
2024/03/03 07:26:31;;;;;;;0.70;0.70;;;;;;;6.73;82.91;96805.81;6216381;23;20475;-94
2024/03/03 07:28:57;;;;;;;0.77;0.77;;;;;;;7.35;81.50;96803.00;6191905;23;20004;-94
2024/03/03 07:31:23;;;;;;;0.70;0.70;;;;;;;7.48;77.98;96800.50;6216561;23;20013;-95
2024/03/03 07:33:49;;;;;;;0.70;0.70;;;;;;;7.18;78.86;96812.53;6217743;23;20056;-94
2024/03/03 07:36:14;;;;;;;0.70;0.70;;;;;;;7.85;80.17;96802.59;6217379;23;20622;-95
2024/03/03 07:38:40;;;;;;;0.60;0.60;;;;;;;8.51;76.23;96792.47;6224326;23;20043;-94
2024/03/03 07:41:07;;;;;;;0.70;0.70;;;;;;;8.82;76.27;96796.22;6201758;23;20015;-95
2024/03/03 07:43:32;;;;;;;0.60;0.60;;;;;;;9.62;73.48;96794.66;6228814;23;20009;-95
2024/03/03 07:45:59;;;;;;;0.60;0.60;;;;;;;9.68;75.46;96785.84;6227827;23;20077;-95
2024/03/03 07:48:25;;;;;;;0.60;0.60;;;;;;;10.20;72.48;96781.38;6199457;23;20031;-94
2024/03/03 07:50:54;;;;;;;0.50;0.50;;;;;;;10.34;65.97;96776.06;6222790;23;20001;-94
2024/03/03 07:53:21;;;;;;;0.50;0.50;;;;;;;11.02;70.71;96771.47;6200204;23;20392;-95
2024/03/03 07:55:48;;;;;;;0.50;0.50;;;;;;;11.20;68.65;96767.78;6223034;23;20024;-93
2024/03/03 07:58:14;;;;;;;;;;;;;;;10.43;64.02;96769.84;6200153;23;20017;-94
2024/03/03 08:00:41;;;;;;;0.50;0.50;;;;;;;10.84;65.27;96763.53;6203090;23;19939;-93
2024/03/03 08:03:08;;;;;;;0.40;0.40;;;;;;;11.39;66.97;96766.78;6207302;23;20524;-94
2024/03/03 08:05:36;;;;;;;0.40;0.40;;;;;;;11.87;68.60;96767.41;6208219;23;20001;-94
2024/03/03 08:08:03;;;;;;;0.40;0.40;;;;;;;11.12;63.24;96770.53;6209606;23;20028;-95
2024/03/03 08:10:30;;;;;;;0.40;0.40;;;;;;;11.01;68.23;96770.53;6234513;23;20012;-94
2024/03/03 08:12:56;;;;;;;0.40;0.40;;;;;;;11.30;64.39;96766.84;6210578;23;19992;-96
2024/03/03 08:15:22;;;;;;;0.40;0.40;;;;;;;11.41;62.06;96758.81;6212774;23;20008;-93
2024/03/03 08:17:48;;;;;;;0.50;0.50;;;;;;;12.93;59.40;96753.88;6211859;23;20035;-94
2024/03/03 08:20:14;;;;;;;0.40;0.40;;;;;;;13.71;58.65;96754.69;6214440;23;20238;-94
2024/03/03 08:22:41;;;;;;;0.40;0.40;;;;;;;13.68;54.57;96747.56;6240872;23;20012;-93
2024/03/03 08:25:09;;;;;;;;;;;;;;;14.22;55.35;96755.63;6221247;23;20023;-94
2024/03/03 08:27:35;;;;;;;0.30;0.30;;;;;;;14.57;53.55;96744.31;6215710;23;19920;-95
2024/03/03 08:30:05;;;;;;;;;;;;;;;15.41;50.84;96741.72;6212681;23;20003;-96
2024/03/03 08:40:30;;;;;;;0.20;0.20;;;;;;;17.46;44.78;96733.75;6181965;23;20013;-91
2024/03/03 08:42:56;;;;;;;0.20;0.20;;;;;;;17.26;44.97;96728.06;6205079;23;20040;-93
2024/03/03 08:45:26;;;;;;;0.20;0.20;;;;;;;16.44;46.56;96726.72;6236096;23;20070;-94
2024/03/03 08:47:53;;;;;;;0.20;0.20;;;;;;;17.91;43.68;96728.75;6200600;23;20016;-93
2024/03/03 08:50:18;;;;;;;;;;;;;;;18.31;42.43;96711.28;6231263;23;20035;-94
2024/03/03 08:52:45;;;;;;;0.20;0.20;;;;;;;18.25;42.36;96711.47;6181875;22;19904;-95
2024/03/03 08:55:13;;;;;;;0.20;0.20;;;;;;;19.70;39.69;96700.81;6223895;23;20795;-93
2024/03/03 08:57:41;;;;;;;0.20;0.20;;;;;;;19.86;38.85;96697.47;6232964;23;20011;-94
2024/03/03 09:00:12;;;;;;;0.20;0.20;;;;;;;20.02;38.20;96697.72;6210035;23;20056;-92
2024/03/03 09:02:40;;;;;;;0.20;0.20;;;;;;;20.87;36.33;96704.06;6238315;23;20054;-91
2024/03/03 09:18:35;;;;;;;0.10;0.10;;;;;;;19.75;37.77;96710.56;6230039;22;20023;-91
2024/03/03 09:21:07;;;;;;;0.10;0.10;;;;;;;19.51;36.75;96696.16;6217934;23;20020;-92
2024/03/03 09:23:32;;;;;;;0.10;0.10;;;;;;;20.30;35.39;96700.19;6195040;23;20047;-90
2024/03/03 09:25:59;;;;;;;0.10;0.10;;;;;;;19.65;37.57;96701.94;6193224;23;20616;-90
2024/03/03 09:28:25;;;;;;;;;;;;;;;19.89;35.89;96709.06;6195050;23;20004;-91
2024/03/03 09:30:50;;;;;;;0.10;0.10;;;;;;;19.08;36.77;96698.66;6242349;23;19912;-89
2024/03/03 09:33:15;;;;;;;0.20;0.20;;;;;;;18.81;37.25;96700.53;6215364;23;20011;-90
2024/03/03 09:35:41;;;;;;;0.20;0.20;;;;;;;16.64;41.27;96693.88;6244691;23;20012;-91
2024/03/03 09:38:07;;;;;;;0.20;0.20;;;;;;;18.48;40.40;96694.47;6216062;23;20341;-89
2024/03/03 09:40:36;;;;;;;0.20;0.20;;;;;;;20.33;37.24;96672.97;6189062;23;20016;-90
2024/03/03 09:43:07;;;;;;;0.20;0.20;;;;;;;21.21;36.13;96690.75;6217305;23;20007;-90
2024/03/03 09:45:34;;;;;;;0.20;0.20;;;;;;;22.23;33.36;96682.31;6217030;23;20038;-91
2024/03/03 09:48:02;;;;;;;0.20;0.20;;;;;;;23.07;32.20;96677.06;6217227;23;20019;-91
2024/03/03 09:50:28;;;;;;;0.10;0.10;;;;;;;23.21;29.31;96673.59;6217599;23;20023;-92
2024/03/03 09:52:56;;;;;;;0.10;0.10;;;;;;;22.92;30.59;96678.78;6219086;23;20344;-92
2024/03/03 09:55:24;;;;;;;0.10;0.10;;;;;;;22.34;31.86;96686.31;6192368;23;20004;-91
2024/03/03 09:57:51;;;;;;;0.10;0.10;;;;;;;22.38;33.28;96682.50;6219608;23;20281;-91
2024/03/03 10:00:16;;;;;;;0.10;0.10;;;;;;;22.83;32.70;96678.34;6214613;23;20043;-92
2024/03/03 10:02:43;;;;;;;0.10;0.10;;;;;;;21.66;33.44;96680.56;6220343;23;20020;-90
2024/03/03 10:05:09;;;;;;;0.10;0.10;;;;;;;21.19;34.30;96683.63;6229198;23;20230;-89
2024/03/03 10:07:51;;;;;;;0.20;0.20;;;;;;;21.96;33.12;96678.19;6218771;23;20074;-90
2024/03/03 10:10:18;;;;;;;0.10;0.10;;;;;;;22.63;32.31;96682.09;6226761;23;20014;-90
2024/03/03 10:12:46;;;;;;;0.10;0.10;;;;;;;23.02;31.54;96671.88;6214944;23;20004;-92
2024/03/03 10:15:12;;;;;;;0.20;0.20;;;;;;;22.10;32.15;96675.69;6193226;23;20012;-89
2024/03/03 10:17:38;;;;;;;0.17;0.17;;;;;;;23.04;30.65;96671.78;6218865;23;20012;-89
2024/03/03 10:20:08;;;;;;;0.10;0.10;;;;;;;23.59;30.22;96671.50;6194650;23;20012;-89
2024/03/03 10:22:34;;;;;;;0.10;0.10;;;;;;;22.19;31.75;96682.53;6184792;23;20022;-88
2024/03/03 10:25:16;;;;;;;0.15;0.15;;;;;;;23.34;28.30;96676.56;6234456;23;20107;-90
2024/03/03 10:27:44;;;;;;;0.10;0.10;;;;;;;21.66;31.18;96676.03;6218856;23;20095;-89
2024/03/03 10:30:12;;;;;;;0.10;0.10;;;;;;;21.81;33.15;96670.81;6185546;23;20065;-90
2024/03/03 10:32:42;;;;;;;0.10;0.10;;;;;;;21.34;32.06;96674.81;6238594;23;20009;-90
2024/03/03 10:35:13;;;;;;;0.10;0.10;;;;;;;21.74;32.98;96676.50;6203035;23;20016;-91
2024/03/03 10:38:01;;;;;;;0.10;0.10;;;;;;;22.31;31.05;96681.03;6258924;23;20012;-91
2024/03/03 10:40:33;;;;;;;0.10;0.10;;;;;;;22.37;29.58;96683.41;6256878;23;20012;-90
2024/03/03 10:43:01;;;;;;;0.10;0.10;;;;;;;22.62;28.68;96673.06;6206597;23;20012;-90
2024/03/03 10:45:29;;;;;;;0.13;0.13;;;;;;;22.34;29.13;96670.00;6190870;23;20075;-93
2024/03/03 10:47:57;;;;;;;0.20;0.20;;;;;;;;;;6213484;23;20015;-92
2024/03/03 10:50:23;;;;;;;0.20;0.20;;;;;;;21.45;29.34;96674.31;6204148;23;20080;-91
2024/03/03 10:52:51;;;;;;;0.20;0.20;;;;;;;22.38;28.49;96675.22;6208155;23;20008;-88
2024/03/03 10:55:18;;;;;;;0.20;0.20;;;;;;;23.68;27.34;96661.97;6207173;23;20019;-87
2024/03/03 10:57:45;;;;;;;0.10;0.10;;;;;;;23.64;26.44;96655.81;6200184;23;20508;-88
2024/03/03 11:00:22;;;;;;;0.10;0.10;;;;;;;22.30;27.74;96663.84;6226035;23;20012;-89
2024/03/03 11:02:53;;;;;;;0.10;0.10;;;;;;;21.86;28.87;96657.88;6222675;23;20040;-92
2024/03/03 11:05:20;;;;;;;0.10;0.10;;;;;;;23.50;27.21;96647.50;6203754;23;20016;-90
2024/03/03 11:07:53;;;;;;;0.10;0.10;;;;;;;24.82;25.30;96644.34;6201658;23;20015;-88
2024/03/03 11:10:19;;;;;;;0.10;0.10;;;;;;;24.36;25.48;96651.69;6171990;23;20652;-88
2024/03/03 11:12:49;;;;;;;0.10;0.10;;;;;;;23.51;26.37;96650.13;6186197;23;20372;-90
2024/03/03 11:15:23;;;;;;;0.10;0.10;;;;;;;23.11;26.31;96648.75;6227120;23;20439;-91
2024/03/03 11:17:59;;;;;;;0.10;0.10;;;;;;;23.24;25.81;96651.69;6202892;23;20467;-91
2024/03/03 11:20:35;;;;;;;0.10;0.10;;;;;;;21.22;28.53;96656.34;6257017;23;20066;-91
2024/03/03 11:23:31;;;;;;;0.10;0.10;;;;;;;20.14;30.66;96653.91;6237773;23;20020;-91
2024/03/03 11:26:17;;;;;;;0.20;0.20;;;;;;;19.85;32.54;96652.41;6221118;23;20047;-90
2024/03/03 11:28:46;;;;;;;0.10;0.10;;;;;;;20.21;30.91;96650.88;6214466;23;20016;-90
2024/03/03 11:31:16;;;;;;;0.20;0.20;;;;;;;19.48;32.43;96661.97;6260500;23;20042;-88
2024/03/03 11:33:43;;;;;;;0.20;0.20;;;;;;;20.72;30.94;96652.28;6205257;23;20023;-92
2024/03/03 11:36:10;;;;;;;0.20;0.20;;;;;;;21.63;29.40;96650.84;6206977;23;20016;-89
2024/03/03 11:39:05;;;;;;;0.20;0.20;;;;;;;20.53;29.16;96645.06;6232103;23;20074;-93
2024/03/03 11:41:38;;;;;;;0.10;0.10;;;;;;;19.89;31.51;96643.22;6225778;23;20016;-89
2024/03/03 11:44:04;;;;;;;0.10;0.10;;;;;;;18.84;33.02;96637.41;6202467;23;20012;-90
2024/03/03 11:46:49;;;;;;;0.20;0.20;;;;;;;19.94;32.67;96630.38;6222822;23;19996;-89
2024/03/03 11:49:18;;;;;;;;;;;;;;;19.42;31.64;96625.22;6199324;23;20480;-89
2024/03/03 11:51:45;;;;;;;0.20;0.20;;;;;;;19.40;32.28;96620.81;6252780;23;19918;-91
2024/03/03 11:54:12;;;;;;;0.20;0.20;;;;;;;19.34;32.50;96621.06;6225726;23;20008;-92
2024/03/03 11:56:46;;;;;;;0.20;0.20;;;;;;;19.32;33.48;96622.97;6198296;23;20048;-89
2024/03/03 11:59:12;;;;;;;0.20;0.20;;;;;;;21.64;30.20;96611.91;6197851;23;20023;-89
2024/03/03 12:01:46;;;;;;;0.20;0.20;;;;;;;19.94;31.92;96617.72;6255359;23;20070;-90
2024/03/03 12:04:14;;;;;;;0.20;0.20;;;;;;;19.73;32.09;96619.47;6194387;23;20431;-90